sensor_id;sensor_type;location;lat;lon;timestamp;P1;durP1;ratioP1;P2;durP2;ratioP2
79330;SDS011;68797;49.782;19.054;2023-04-03T00:00:16;15.05;;;8.18;;
79330;SDS011;68797;49.782;19.054;2023-04-03T00:03:03;19.80;;;10.05;;
79330;SDS011;68797;49.782;19.054;2023-04-03T00:05:29;27.83;;;13.98;;
79330;SDS011;68797;49.782;19.054;2023-04-03T00:07:56;19.10;;;9.80;;
79330;SDS011;68797;49.782;19.054;2023-04-03T00:10:22;23.58;;;11.35;;
79330;SDS011;68797;49.782;19.054;2023-04-03T00:12:49;23.95;;;12.40;;
79330;SDS011;68797;49.782;19.054;2023-04-03T00:15:15;20.42;;;10.73;;
79330;SDS011;68797;49.782;19.054;2023-04-03T00:17:41;18.48;;;9.30;;
79330;SDS011;68797;49.782;19.054;2023-04-03T00:20:09;23.90;;;12.63;;
79330;SDS011;68797;49.782;19.054;2023-04-03T00:22:37;22.80;;;12.45;;
79330;SDS011;68797;49.782;19.054;2023-04-03T00:25:03;26.85;;;13.52;;
79330;SDS011;68797;49.782;19.054;2023-04-03T00:27:30;22.88;;;12.70;;
79330;SDS011;68797;49.782;19.054;2023-04-03T00:29:57;28.92;;;14.40;;
79330;SDS011;68797;49.782;19.054;2023-04-03T00:32:23;20.77;;;10.60;;
79330;SDS011;68797;49.782;19.054;2023-04-03T00:34:49;18.50;;;10.95;;
79330;SDS011;68797;49.782;19.054;2023-04-03T00:37:17;19.08;;;8.82;;
79330;SDS011;68797;49.782;19.054;2023-04-03T00:39:43;20.88;;;10.38;;
79330;SDS011;68797;49.782;19.054;2023-04-03T00:42:10;23.65;;;12.32;;
79330;SDS011;68797;49.782;19.054;2023-04-03T00:48:58;23.58;;;11.75;;
79330;SDS011;68797;49.782;19.054;2023-04-03T00:51:25;24.25;;;12.23;;
79330;SDS011;68797;49.782;19.054;2023-04-03T00:53:58;21.50;;;11.32;;
79330;SDS011;68797;49.782;19.054;2023-04-03T00:56:29;26.95;;;14.07;;
79330;SDS011;68797;49.782;19.054;2023-04-03T00:59:05;20.45;;;11.65;;
79330;SDS011;68797;49.782;19.054;2023-04-03T01:01:37;19.88;;;8.88;;
79330;SDS011;68797;49.782;19.054;2023-04-03T01:04:24;21.83;;;11.95;;
79330;SDS011;68797;49.782;19.054;2023-04-03T01:07:04;23.15;;;12.02;;
79330;SDS011;68797;49.782;19.054;2023-04-03T01:09:32;18.40;;;10.15;;
79330;SDS011;68797;49.782;19.054;2023-04-03T01:12:14;19.73;;;10.77;;
79330;SDS011;68797;49.782;19.054;2023-04-03T01:14:57;22.55;;;11.20;;
79330;SDS011;68797;49.782;19.054;2023-04-03T01:17:31;27.77;;;14.35;;
79330;SDS011;68797;49.782;19.054;2023-04-03T01:20:14;21.33;;;11.90;;
79330;SDS011;68797;49.782;19.054;2023-04-03T01:23:16;26.30;;;14.60;;
79330;SDS011;68797;49.782;19.054;2023-04-03T01:25:51;24.65;;;11.18;;
79330;SDS011;68797;49.782;19.054;2023-04-03T01:28:30;25.63;;;12.93;;
79330;SDS011;68797;49.782;19.054;2023-04-03T01:31:11;23.65;;;12.32;;
79330;SDS011;68797;49.782;19.054;2023-04-03T01:34:18;21.20;;;11.18;;
79330;SDS011;68797;49.782;19.054;2023-04-03T01:36:45;19.20;;;10.43;;
79330;SDS011;68797;49.782;19.054;2023-04-03T01:39:13;24.95;;;14.02;;
79330;SDS011;68797;49.782;19.054;2023-04-03T01:41:40;26.98;;;15.77;;
79330;SDS011;68797;49.782;19.054;2023-04-03T01:44:14;26.65;;;13.20;;
79330;SDS011;68797;49.782;19.054;2023-04-03T01:46:40;21.17;;;12.10;;
79330;SDS011;68797;49.782;19.054;2023-04-03T01:49:10;25.33;;;13.63;;
79330;SDS011;68797;49.782;19.054;2023-04-03T01:51:38;16.33;;;9.18;;
79330;SDS011;68797;49.782;19.054;2023-04-03T01:54:04;16.42;;;10.38;;
79330;SDS011;68797;49.782;19.054;2023-04-03T01:56:31;15.43;;;9.90;;
79330;SDS011;68797;49.782;19.054;2023-04-03T01:58:57;9.63;;;5.60;;
79330;SDS011;68797;49.782;19.054;2023-04-03T02:01:24;14.55;;;8.18;;
79330;SDS011;68797;49.782;19.054;2023-04-03T02:06:18;13.25;;;8.07;;
79330;SDS011;68797;49.782;19.054;2023-04-03T02:08:45;19.25;;;10.00;;
79330;SDS011;68797;49.782;19.054;2023-04-03T02:11:15;18.23;;;10.85;;
79330;SDS011;68797;49.782;19.054;2023-04-03T02:13:44;15.45;;;9.05;;
79330;SDS011;68797;49.782;19.054;2023-04-03T02:16:14;18.88;;;10.48;;
79330;SDS011;68797;49.782;19.054;2023-04-03T02:18:41;14.43;;;8.35;;
79330;SDS011;68797;49.782;19.054;2023-04-03T02:21:08;14.25;;;8.10;;
79330;SDS011;68797;49.782;19.054;2023-04-03T02:23:36;19.75;;;11.15;;
79330;SDS011;68797;49.782;19.054;2023-04-03T02:26:08;17.20;;;8.85;;
79330;SDS011;68797;49.782;19.054;2023-04-03T02:28:40;15.20;;;10.13;;
79330;SDS011;68797;49.782;19.054;2023-04-03T02:31:07;15.80;;;9.20;;
79330;SDS011;68797;49.782;19.054;2023-04-03T02:33:37;17.08;;;9.98;;
79330;SDS011;68797;49.782;19.054;2023-04-03T02:36:08;22.45;;;12.65;;
79330;SDS011;68797;49.782;19.054;2023-04-03T02:38:36;18.35;;;9.65;;
79330;SDS011;68797;49.782;19.054;2023-04-03T02:41:06;20.42;;;12.32;;
79330;SDS011;68797;49.782;19.054;2023-04-03T02:43:34;21.58;;;11.98;;
79330;SDS011;68797;49.782;19.054;2023-04-03T02:46:03;17.95;;;10.80;;
79330;SDS011;68797;49.782;19.054;2023-04-03T02:48:32;23.08;;;13.32;;
79330;SDS011;68797;49.782;19.054;2023-04-03T02:51:00;39.47;;;20.52;;
79330;SDS011;68797;49.782;19.054;2023-04-03T02:53:28;19.75;;;11.30;;
79330;SDS011;68797;49.782;19.054;2023-04-03T02:55:55;16.00;;;9.10;;
79330;SDS011;68797;49.782;19.054;2023-04-03T02:58:21;24.50;;;14.02;;
79330;SDS011;68797;49.782;19.054;2023-04-03T03:00:49;19.65;;;10.95;;
79330;SDS011;68797;49.782;19.054;2023-04-03T03:03:25;24.85;;;13.77;;
79330;SDS011;68797;49.782;19.054;2023-04-03T03:06:03;22.23;;;11.77;;
79330;SDS011;68797;49.782;19.054;2023-04-03T03:08:31;20.15;;;12.50;;
79330;SDS011;68797;49.782;19.054;2023-04-03T03:10:58;32.30;;;17.80;;
79330;SDS011;68797;49.782;19.054;2023-04-03T03:13:29;24.08;;;12.35;;
79330;SDS011;68797;49.782;19.054;2023-04-03T03:15:57;24.67;;;13.55;;
79330;SDS011;68797;49.782;19.054;2023-04-03T03:18:23;29.65;;;15.10;;
79330;SDS011;68797;49.782;19.054;2023-04-03T03:20:51;21.92;;;10.55;;
79330;SDS011;68797;49.782;19.054;2023-04-03T03:23:19;18.85;;;10.38;;
79330;SDS011;68797;49.782;19.054;2023-04-03T03:25:47;24.65;;;12.90;;
79330;SDS011;68797;49.782;19.054;2023-04-03T03:28:14;25.63;;;13.82;;
79330;SDS011;68797;49.782;19.054;2023-04-03T03:30:41;23.52;;;11.95;;
79330;SDS011;68797;49.782;19.054;2023-04-03T03:33:07;28.98;;;14.05;;
79330;SDS011;68797;49.782;19.054;2023-04-03T03:35:34;25.38;;;13.15;;
79330;SDS011;68797;49.782;19.054;2023-04-03T03:38:03;26.25;;;12.38;;
79330;SDS011;68797;49.782;19.054;2023-04-03T03:40:30;26.67;;;15.18;;
79330;SDS011;68797;49.782;19.054;2023-04-03T03:42:57;25.55;;;14.35;;
79330;SDS011;68797;49.782;19.054;2023-04-03T03:45:23;29.45;;;14.77;;
79330;SDS011;68797;49.782;19.054;2023-04-03T03:47:49;20.27;;;11.30;;
79330;SDS011;68797;49.782;19.054;2023-04-03T03:50:16;23.35;;;11.38;;
79330;SDS011;68797;49.782;19.054;2023-04-03T03:52:42;30.30;;;14.80;;
79330;SDS011;68797;49.782;19.054;2023-04-03T03:55:10;26.38;;;15.05;;
79330;SDS011;68797;49.782;19.054;2023-04-03T03:57:37;29.35;;;15.52;;
79330;SDS011;68797;49.782;19.054;2023-04-03T04:00:05;27.63;;;15.52;;
79330;SDS011;68797;49.782;19.054;2023-04-03T04:02:41;30.92;;;15.90;;
79330;SDS011;68797;49.782;19.054;2023-04-03T04:05:14;19.90;;;10.30;;
79330;SDS011;68797;49.782;19.054;2023-04-03T04:07:41;20.77;;;11.68;;
79330;SDS011;68797;49.782;19.054;2023-04-03T04:10:08;18.42;;;9.32;;
79330;SDS011;68797;49.782;19.054;2023-04-03T04:12:38;24.33;;;12.90;;
79330;SDS011;68797;49.782;19.054;2023-04-03T04:15:08;22.67;;;12.85;;
79330;SDS011;68797;49.782;19.054;2023-04-03T04:17:36;28.98;;;15.57;;
79330;SDS011;68797;49.782;19.054;2023-04-03T04:20:05;24.02;;;13.13;;
79330;SDS011;68797;49.782;19.054;2023-04-03T04:22:33;24.95;;;12.43;;
79330;SDS011;68797;49.782;19.054;2023-04-03T04:25:01;27.42;;;13.48;;
79330;SDS011;68797;49.782;19.054;2023-04-03T04:27:29;21.58;;;11.60;;
79330;SDS011;68797;49.782;19.054;2023-04-03T04:29:58;24.48;;;13.15;;
79330;SDS011;68797;49.782;19.054;2023-04-03T04:32:26;23.35;;;12.88;;
79330;SDS011;68797;49.782;19.054;2023-04-03T04:34:54;20.10;;;10.60;;
79330;SDS011;68797;49.782;19.054;2023-04-03T04:37:21;21.38;;;11.82;;
79330;SDS011;68797;49.782;19.054;2023-04-03T04:39:47;26.75;;;12.57;;
79330;SDS011;68797;49.782;19.054;2023-04-03T04:42:14;19.52;;;10.52;;
79330;SDS011;68797;49.782;19.054;2023-04-03T04:44:42;20.85;;;10.85;;
79330;SDS011;68797;49.782;19.054;2023-04-03T04:47:38;19.02;;;10.55;;
79330;SDS011;68797;49.782;19.054;2023-04-03T04:51:31;19.52;;;8.98;;
79330;SDS011;68797;49.782;19.054;2023-04-03T04:55:43;14.77;;;7.93;;
79330;SDS011;68797;49.782;19.054;2023-04-03T04:59:25;16.45;;;7.75;;
79330;SDS011;68797;49.782;19.054;2023-04-03T05:03:17;12.38;;;7.20;;
79330;SDS011;68797;49.782;19.054;2023-04-03T05:06:22;16.10;;;8.60;;
79330;SDS011;68797;49.782;19.054;2023-04-03T05:12:55;16.98;;;8.93;;
79330;SDS011;68797;49.782;19.054;2023-04-03T05:18:55;21.50;;;8.57;;
79330;SDS011;68797;49.782;19.054;2023-04-03T05:21:23;21.88;;;10.32;;
79330;SDS011;68797;49.782;19.054;2023-04-03T05:23:54;19.00;;;7.93;;
79330;SDS011;68797;49.782;19.054;2023-04-03T05:26:21;20.40;;;9.50;;
79330;SDS011;68797;49.782;19.054;2023-04-03T05:28:49;17.60;;;8.93;;
79330;SDS011;68797;49.782;19.054;2023-04-03T05:31:18;15.43;;;8.32;;
79330;SDS011;68797;49.782;19.054;2023-04-03T05:33:47;24.00;;;10.48;;
79330;SDS011;68797;49.782;19.054;2023-04-03T05:36:17;22.92;;;10.38;;
79330;SDS011;68797;49.782;19.054;2023-04-03T05:38:56;20.95;;;9.05;;
79330;SDS011;68797;49.782;19.054;2023-04-03T05:41:23;20.05;;;9.63;;
79330;SDS011;68797;49.782;19.054;2023-04-03T05:43:50;20.92;;;11.27;;
79330;SDS011;68797;49.782;19.054;2023-04-03T05:46:19;23.67;;;13.50;;
79330;SDS011;68797;49.782;19.054;2023-04-03T05:48:50;21.75;;;13.07;;
79330;SDS011;68797;49.782;19.054;2023-04-03T05:51:30;22.80;;;11.40;;
79330;SDS011;68797;49.782;19.054;2023-04-03T05:54:16;27.60;;;13.18;;
79330;SDS011;68797;49.782;19.054;2023-04-03T05:56:44;21.27;;;12.05;;
79330;SDS011;68797;49.782;19.054;2023-04-03T05:59:11;24.70;;;13.73;;
79330;SDS011;68797;49.782;19.054;2023-04-03T06:01:38;19.15;;;9.65;;
79330;SDS011;68797;49.782;19.054;2023-04-03T06:04:04;22.75;;;10.48;;
79330;SDS011;68797;49.782;19.054;2023-04-03T06:09:14;33.08;;;13.55;;
79330;SDS011;68797;49.782;19.054;2023-04-03T06:11:42;27.77;;;13.40;;
79330;SDS011;68797;49.782;19.054;2023-04-03T06:14:09;27.08;;;13.52;;
79330;SDS011;68797;49.782;19.054;2023-04-03T06:16:36;23.55;;;10.95;;
79330;SDS011;68797;49.782;19.054;2023-04-03T06:19:07;21.67;;;10.18;;
79330;SDS011;68797;49.782;19.054;2023-04-03T06:21:35;21.52;;;10.88;;
79330;SDS011;68797;49.782;19.054;2023-04-03T06:24:04;22.88;;;11.27;;
79330;SDS011;68797;49.782;19.054;2023-04-03T06:26:32;19.20;;;9.48;;
79330;SDS011;68797;49.782;19.054;2023-04-03T06:28:59;26.83;;;13.85;;
79330;SDS011;68797;49.782;19.054;2023-04-03T06:31:26;14.45;;;9.52;;
79330;SDS011;68797;49.782;19.054;2023-04-03T06:33:52;20.92;;;10.90;;
79330;SDS011;68797;49.782;19.054;2023-04-03T06:36:19;21.95;;;11.38;;
79330;SDS011;68797;49.782;19.054;2023-04-03T06:38:46;24.02;;;12.55;;
79330;SDS011;68797;49.782;19.054;2023-04-03T06:41:15;21.42;;;12.43;;
79330;SDS011;68797;49.782;19.054;2023-04-03T06:43:43;24.10;;;12.10;;
79330;SDS011;68797;49.782;19.054;2023-04-03T06:46:16;24.63;;;12.55;;
79330;SDS011;68797;49.782;19.054;2023-04-03T06:48:44;17.33;;;9.75;;
79330;SDS011;68797;49.782;19.054;2023-04-03T06:51:14;14.32;;;7.38;;
79330;SDS011;68797;49.782;19.054;2023-04-03T06:53:45;13.48;;;7.30;;
79330;SDS011;68797;49.782;19.054;2023-04-03T06:58:39;15.80;;;6.97;;
79330;SDS011;68797;49.782;19.054;2023-04-03T07:01:07;16.65;;;7.28;;
79330;SDS011;68797;49.782;19.054;2023-04-03T07:03:39;14.25;;;6.13;;
79330;SDS011;68797;49.782;19.054;2023-04-03T07:06:07;18.92;;;7.20;;
79330;SDS011;68797;49.782;19.054;2023-04-03T07:08:38;16.90;;;7.18;;
79330;SDS011;68797;49.782;19.054;2023-04-03T07:11:05;14.52;;;7.60;;
79330;SDS011;68797;49.782;19.054;2023-04-03T07:13:32;21.05;;;9.15;;
79330;SDS011;68797;49.782;19.054;2023-04-03T07:19:11;19.05;;;8.55;;
79330;SDS011;68797;49.782;19.054;2023-04-03T07:22:33;17.33;;;7.25;;
79330;SDS011;68797;49.782;19.054;2023-04-03T07:24:59;17.65;;;8.90;;
79330;SDS011;68797;49.782;19.054;2023-04-03T07:27:25;11.68;;;6.53;;
79330;SDS011;68797;49.782;19.054;2023-04-03T07:29:55;13.98;;;4.75;;
79330;SDS011;68797;49.782;19.054;2023-04-03T07:32:24;8.40;;;4.60;;
79330;SDS011;68797;49.782;19.054;2023-04-03T07:34:51;10.02;;;4.45;;
79330;SDS011;68797;49.782;19.054;2023-04-03T07:37:17;8.02;;;3.80;;
79330;SDS011;68797;49.782;19.054;2023-04-03T07:39:44;18.60;;;4.35;;
79330;SDS011;68797;49.782;19.054;2023-04-03T07:42:10;7.13;;;3.80;;
79330;SDS011;68797;49.782;19.054;2023-04-03T07:44:47;9.57;;;4.80;;
79330;SDS011;68797;49.782;19.054;2023-04-03T07:47:14;5.05;;;2.92;;
79330;SDS011;68797;49.782;19.054;2023-04-03T07:49:43;8.45;;;3.17;;
79330;SDS011;68797;49.782;19.054;2023-04-03T07:52:10;5.75;;;3.17;;
79330;SDS011;68797;49.782;19.054;2023-04-03T07:54:36;6.32;;;3.53;;
79330;SDS011;68797;49.782;19.054;2023-04-03T07:57:06;7.10;;;2.92;;
79330;SDS011;68797;49.782;19.054;2023-04-03T07:59:32;7.40;;;4.25;;
79330;SDS011;68797;49.782;19.054;2023-04-03T08:01:59;4.75;;;2.55;;
79330;SDS011;68797;49.782;19.054;2023-04-03T08:04:28;10.23;;;3.67;;
79330;SDS011;68797;49.782;19.054;2023-04-03T08:06:54;11.63;;;4.80;;
79330;SDS011;68797;49.782;19.054;2023-04-03T08:09:20;8.57;;;4.90;;
79330;SDS011;68797;49.782;19.054;2023-04-03T08:11:46;7.25;;;3.40;;
79330;SDS011;68797;49.782;19.054;2023-04-03T08:14:13;5.75;;;3.03;;
79330;SDS011;68797;49.782;19.054;2023-04-03T08:16:45;7.10;;;3.50;;
79330;SDS011;68797;49.782;19.054;2023-04-03T08:19:13;12.82;;;6.22;;
79330;SDS011;68797;49.782;19.054;2023-04-03T08:21:41;8.63;;;4.95;;
79330;SDS011;68797;49.782;19.054;2023-04-03T08:24:08;9.55;;;4.80;;
79330;SDS011;68797;49.782;19.054;2023-04-03T08:26:34;17.35;;;6.95;;
79330;SDS011;68797;49.782;19.054;2023-04-03T08:29:04;15.48;;;6.78;;
79330;SDS011;68797;49.782;19.054;2023-04-03T08:31:31;11.02;;;6.85;;
79330;SDS011;68797;49.782;19.054;2023-04-03T08:33:58;18.95;;;8.00;;
79330;SDS011;68797;49.782;19.054;2023-04-03T08:36:25;12.07;;;6.43;;
79330;SDS011;68797;49.782;19.054;2023-04-03T08:38:54;9.50;;;4.95;;
79330;SDS011;68797;49.782;19.054;2023-04-03T08:41:43;5.38;;;2.63;;
79330;SDS011;68797;49.782;19.054;2023-04-03T08:44:33;9.30;;;3.67;;
79330;SDS011;68797;49.782;19.054;2023-04-03T08:47:28;5.80;;;2.53;;
79330;SDS011;68797;49.782;19.054;2023-04-03T08:50:16;7.95;;;2.78;;
79330;SDS011;68797;49.782;19.054;2023-04-03T08:52:52;8.50;;;3.45;;
79330;SDS011;68797;49.782;19.054;2023-04-03T08:55:25;9.00;;;3.88;;
79330;SDS011;68797;49.782;19.054;2023-04-03T08:58:02;9.43;;;4.32;;
79330;SDS011;68797;49.782;19.054;2023-04-03T09:00:44;12.10;;;3.97;;
79330;SDS011;68797;49.782;19.054;2023-04-03T09:03:16;10.40;;;4.07;;
79330;SDS011;68797;49.782;19.054;2023-04-03T09:08:31;12.80;;;4.97;;
79330;SDS011;68797;49.782;19.054;2023-04-03T09:16:28;5.72;;;2.78;;
79330;SDS011;68797;49.782;19.054;2023-04-03T09:22:23;5.13;;;2.70;;
79330;SDS011;68797;49.782;19.054;2023-04-03T09:24:58;5.90;;;3.03;;
79330;SDS011;68797;49.782;19.054;2023-04-03T09:27:26;5.75;;;3.10;;
79330;SDS011;68797;49.782;19.054;2023-04-03T09:29:53;8.95;;;3.28;;
79330;SDS011;68797;49.782;19.054;2023-04-03T09:34:59;11.45;;;4.55;;
79330;SDS011;68797;49.782;19.054;2023-04-03T09:37:36;4.40;;;2.92;;
79330;SDS011;68797;49.782;19.054;2023-04-03T09:40:04;7.35;;;3.70;;
79330;SDS011;68797;49.782;19.054;2023-04-03T09:42:45;6.93;;;2.40;;
79330;SDS011;68797;49.782;19.054;2023-04-03T09:45:21;8.73;;;3.60;;
79330;SDS011;68797;49.782;19.054;2023-04-03T09:53:36;9.13;;;3.22;;
79330;SDS011;68797;49.782;19.054;2023-04-03T09:58:44;5.82;;;2.78;;
79330;SDS011;68797;49.782;19.054;2023-04-03T10:01:22;9.40;;;2.85;;
79330;SDS011;68797;49.782;19.054;2023-04-03T10:04:03;5.82;;;3.20;;
79330;SDS011;68797;49.782;19.054;2023-04-03T10:06:31;10.40;;;3.95;;
79330;SDS011;68797;49.782;19.054;2023-04-03T10:09:05;8.77;;;3.78;;
79330;SDS011;68797;49.782;19.054;2023-04-03T10:12:31;8.05;;;3.38;;
79330;SDS011;68797;49.782;19.054;2023-04-03T10:14:36;4.68;;;2.50;;
79330;SDS011;68797;49.782;19.054;2023-04-03T10:20:09;8.50;;;4.10;;
79330;SDS011;68797;49.782;19.054;2023-04-03T10:22:44;7.65;;;3.60;;
79330;SDS011;68797;49.782;19.054;2023-04-03T10:31:55;7.40;;;3.47;;
79330;SDS011;68797;49.782;19.054;2023-04-03T10:34:24;7.63;;;3.53;;
79330;SDS011;68797;49.782;19.054;2023-04-03T10:39:44;6.68;;;3.42;;
79330;SDS011;68797;49.782;19.054;2023-04-03T10:48:14;8.68;;;4.13;;
79330;SDS011;68797;49.782;19.054;2023-04-03T10:53:44;6.72;;;3.40;;
79330;SDS011;68797;49.782;19.054;2023-04-03T10:57:00;8.82;;;3.38;;
79330;SDS011;68797;49.782;19.054;2023-04-03T10:59:14;6.40;;;2.92;;
79330;SDS011;68797;49.782;19.054;2023-04-03T11:02:01;10.85;;;3.35;;
79330;SDS011;68797;49.782;19.054;2023-04-03T11:04:37;7.85;;;3.80;;
79330;SDS011;68797;49.782;19.054;2023-04-03T11:07:25;9.52;;;4.32;;
79330;SDS011;68797;49.782;19.054;2023-04-03T11:10:02;8.43;;;4.10;;
79330;SDS011;68797;49.782;19.054;2023-04-03T11:15:15;6.03;;;3.30;;
79330;SDS011;68797;49.782;19.054;2023-04-03T11:17:52;7.13;;;2.67;;
79330;SDS011;68797;49.782;19.054;2023-04-03T11:20:24;10.27;;;3.90;;
79330;SDS011;68797;49.782;19.054;2023-04-03T11:25:52;7.40;;;3.85;;
79330;SDS011;68797;49.782;19.054;2023-04-03T11:28:23;11.90;;;5.35;;
79330;SDS011;68797;49.782;19.054;2023-04-03T11:31:38;9.23;;;4.13;;
79330;SDS011;68797;49.782;19.054;2023-04-03T11:34:21;6.25;;;3.75;;
79330;SDS011;68797;49.782;19.054;2023-04-03T11:37:00;8.15;;;4.10;;
79330;SDS011;68797;49.782;19.054;2023-04-03T11:39:34;9.80;;;4.00;;
79330;SDS011;68797;49.782;19.054;2023-04-03T11:42:14;4.63;;;2.75;;
79330;SDS011;68797;49.782;19.054;2023-04-03T11:48:00;7.38;;;3.10;;
79330;SDS011;68797;49.782;19.054;2023-04-03T11:50:31;5.20;;;2.72;;
79330;SDS011;68797;49.782;19.054;2023-04-03T11:53:02;16.00;;;9.45;;
79330;SDS011;68797;49.782;19.054;2023-04-03T12:05:56;3.67;;;1.58;;
79330;SDS011;68797;49.782;19.054;2023-04-03T12:11:14;4.05;;;1.77;;
79330;SDS011;68797;49.782;19.054;2023-04-03T12:16:20;3.20;;;1.75;;
79330;SDS011;68797;49.782;19.054;2023-04-03T12:21:24;3.53;;;2.22;;
79330;SDS011;68797;49.782;19.054;2023-04-03T12:30:34;5.45;;;2.60;;
79330;SDS011;68797;49.782;19.054;2023-04-03T12:33:02;8.85;;;2.75;;
79330;SDS011;68797;49.782;19.054;2023-04-03T12:38:35;4.85;;;2.30;;
79330;SDS011;68797;49.782;19.054;2023-04-03T12:41:36;4.22;;;2.20;;
79330;SDS011;68797;49.782;19.054;2023-04-03T12:44:35;6.18;;;2.53;;
79330;SDS011;68797;49.782;19.054;2023-04-03T12:47:46;4.45;;;2.20;;
79330;SDS011;68797;49.782;19.054;2023-04-03T12:53:13;5.43;;;2.08;;
79330;SDS011;68797;49.782;19.054;2023-04-03T12:55:44;5.07;;;2.30;;
79330;SDS011;68797;49.782;19.054;2023-04-03T12:58:25;6.97;;;2.58;;
79330;SDS011;68797;49.782;19.054;2023-04-03T13:03:43;5.80;;;2.70;;
79330;SDS011;68797;49.782;19.054;2023-04-03T13:06:34;5.05;;;2.50;;
79330;SDS011;68797;49.782;19.054;2023-04-03T13:09:04;3.28;;;2.67;;
79330;SDS011;68797;49.782;19.054;2023-04-03T13:11:43;6.15;;;2.97;;
79330;SDS011;68797;49.782;19.054;2023-04-03T13:14:15;5.50;;;2.50;;
79330;SDS011;68797;49.782;19.054;2023-04-03T13:16:57;5.05;;;2.60;;
79330;SDS011;68797;49.782;19.054;2023-04-03T13:19:27;3.33;;;2.25;;
79330;SDS011;68797;49.782;19.054;2023-04-03T13:21:59;7.15;;;3.22;;
79330;SDS011;68797;49.782;19.054;2023-04-03T13:24:52;4.68;;;3.10;;
79330;SDS011;68797;49.782;19.054;2023-04-03T13:27:21;6.78;;;2.83;;
79330;SDS011;68797;49.782;19.054;2023-04-03T13:29:51;5.85;;;3.13;;
79330;SDS011;68797;49.782;19.054;2023-04-03T13:32:21;4.72;;;2.85;;
79330;SDS011;68797;49.782;19.054;2023-04-03T13:34:50;5.68;;;2.53;;
79330;SDS011;68797;49.782;19.054;2023-04-03T13:39:57;8.43;;;3.92;;
79330;SDS011;68797;49.782;19.054;2023-04-03T13:42:42;8.65;;;3.45;;
79330;SDS011;68797;49.782;19.054;2023-04-03T13:45:22;7.65;;;3.08;;
79330;SDS011;68797;49.782;19.054;2023-04-03T13:53:31;8.30;;;2.83;;
79330;SDS011;68797;49.782;19.054;2023-04-03T13:58:30;5.80;;;2.55;;
79330;SDS011;68797;49.782;19.054;2023-04-03T14:01:14;5.80;;;2.63;;
79330;SDS011;68797;49.782;19.054;2023-04-03T14:03:51;7.90;;;3.33;;
79330;SDS011;68797;49.782;19.054;2023-04-03T14:06:21;7.20;;;2.97;;
79330;SDS011;68797;49.782;19.054;2023-04-03T14:08:49;7.28;;;3.13;;
79330;SDS011;68797;49.782;19.054;2023-04-03T14:11:20;9.05;;;3.60;;
79330;SDS011;68797;49.782;19.054;2023-04-03T14:13:49;4.47;;;2.50;;
79330;SDS011;68797;49.782;19.054;2023-04-03T14:16:21;6.82;;;2.60;;
79330;SDS011;68797;49.782;19.054;2023-04-03T14:18:56;5.88;;;2.78;;
79330;SDS011;68797;49.782;19.054;2023-04-03T14:21:26;5.68;;;2.53;;
79330;SDS011;68797;49.782;19.054;2023-04-03T14:23:54;11.48;;;4.40;;
79330;SDS011;68797;49.782;19.054;2023-04-03T14:26:24;12.93;;;4.20;;
79330;SDS011;68797;49.782;19.054;2023-04-03T14:28:54;5.85;;;2.90;;
79330;SDS011;68797;49.782;19.054;2023-04-03T14:31:23;11.77;;;3.90;;
79330;SDS011;68797;49.782;19.054;2023-04-03T14:33:51;10.63;;;3.30;;
79330;SDS011;68797;49.782;19.054;2023-04-03T14:36:20;10.75;;;3.65;;
79330;SDS011;68797;49.782;19.054;2023-04-03T14:38:52;7.25;;;3.05;;
79330;SDS011;68797;49.782;19.054;2023-04-03T14:41:23;6.68;;;3.20;;
79330;SDS011;68797;49.782;19.054;2023-04-03T14:43:53;8.07;;;3.90;;
79330;SDS011;68797;49.782;19.054;2023-04-03T14:46:29;8.20;;;4.13;;
79330;SDS011;68797;49.782;19.054;2023-04-03T14:48:58;5.85;;;2.85;;
79330;SDS011;68797;49.782;19.054;2023-04-03T14:51:27;9.45;;;5.15;;
79330;SDS011;68797;49.782;19.054;2023-04-03T14:53:56;7.35;;;3.45;;
79330;SDS011;68797;49.782;19.054;2023-04-03T14:56:23;8.57;;;3.20;;
79330;SDS011;68797;49.782;19.054;2023-04-03T14:59:00;5.25;;;3.05;;
79330;SDS011;68797;49.782;19.054;2023-04-03T15:01:27;7.85;;;2.83;;
79330;SDS011;68797;49.782;19.054;2023-04-03T15:03:56;5.40;;;2.67;;
79330;SDS011;68797;49.782;19.054;2023-04-03T15:06:22;6.57;;;3.10;;
79330;SDS011;68797;49.782;19.054;2023-04-03T15:08:51;7.65;;;3.75;;
79330;SDS011;68797;49.782;19.054;2023-04-03T15:11:17;8.85;;;3.97;;
79330;SDS011;68797;49.782;19.054;2023-04-03T15:13:46;15.75;;;5.97;;
79330;SDS011;68797;49.782;19.054;2023-04-03T15:16:17;8.55;;;3.78;;
79330;SDS011;68797;49.782;19.054;2023-04-03T15:18:45;9.13;;;4.32;;
79330;SDS011;68797;49.782;19.054;2023-04-03T15:23:39;9.45;;;4.13;;
79330;SDS011;68797;49.782;19.054;2023-04-03T15:26:13;7.10;;;2.97;;
79330;SDS011;68797;49.782;19.054;2023-04-03T15:28:43;7.03;;;3.60;;
79330;SDS011;68797;49.782;19.054;2023-04-03T15:31:10;7.05;;;3.65;;
79330;SDS011;68797;49.782;19.054;2023-04-03T15:33:39;8.07;;;3.97;;
79330;SDS011;68797;49.782;19.054;2023-04-03T15:36:06;6.25;;;2.92;;
79330;SDS011;68797;49.782;19.054;2023-04-03T15:38:35;9.63;;;4.10;;
79330;SDS011;68797;49.782;19.054;2023-04-03T15:41:04;7.15;;;3.70;;
79330;SDS011;68797;49.782;19.054;2023-04-03T15:43:30;10.90;;;3.50;;
79330;SDS011;68797;49.782;19.054;2023-04-03T15:45:59;9.27;;;4.07;;
79330;SDS011;68797;49.782;19.054;2023-04-03T15:48:26;7.03;;;3.67;;
79330;SDS011;68797;49.782;19.054;2023-04-03T15:50:54;6.65;;;3.15;;
79330;SDS011;68797;49.782;19.054;2023-04-03T15:53:21;7.15;;;3.53;;
79330;SDS011;68797;49.782;19.054;2023-04-03T15:55:49;5.30;;;2.38;;
79330;SDS011;68797;49.782;19.054;2023-04-03T15:58:15;8.05;;;3.33;;
79330;SDS011;68797;49.782;19.054;2023-04-03T16:00:41;7.30;;;3.05;;
79330;SDS011;68797;49.782;19.054;2023-04-03T16:03:10;6.43;;;2.70;;
79330;SDS011;68797;49.782;19.054;2023-04-03T16:05:40;5.13;;;2.75;;
79330;SDS011;68797;49.782;19.054;2023-04-03T16:08:07;12.23;;;5.00;;
79330;SDS011;68797;49.782;19.054;2023-04-03T16:10:37;6.50;;;3.03;;
79330;SDS011;68797;49.782;19.054;2023-04-03T16:13:05;9.50;;;3.15;;
79330;SDS011;68797;49.782;19.054;2023-04-03T16:15:32;9.73;;;4.07;;
79330;SDS011;68797;49.782;19.054;2023-04-03T16:18:00;8.15;;;4.03;;
79330;SDS011;68797;49.782;19.054;2023-04-03T16:20:30;7.20;;;3.45;;
79330;SDS011;68797;49.782;19.054;2023-04-03T16:22:58;9.75;;;4.20;;
79330;SDS011;68797;49.782;19.054;2023-04-03T16:25:26;5.70;;;2.85;;
79330;SDS011;68797;49.782;19.054;2023-04-03T16:27:54;5.80;;;2.83;;
79330;SDS011;68797;49.782;19.054;2023-04-03T16:30:20;8.05;;;2.92;;
79330;SDS011;68797;49.782;19.054;2023-04-03T16:32:46;9.40;;;4.93;;
79330;SDS011;68797;49.782;19.054;2023-04-03T16:35:15;8.52;;;4.10;;
79330;SDS011;68797;49.782;19.054;2023-04-03T16:37:43;9.10;;;3.45;;
79330;SDS011;68797;49.782;19.054;2023-04-03T16:40:09;9.15;;;4.22;;
79330;SDS011;68797;49.782;19.054;2023-04-03T16:42:37;6.40;;;3.15;;
79330;SDS011;68797;49.782;19.054;2023-04-03T16:45:04;8.07;;;3.88;;
79330;SDS011;68797;49.782;19.054;2023-04-03T16:47:31;10.98;;;3.50;;
79330;SDS011;68797;49.782;19.054;2023-04-03T16:49:58;9.70;;;4.32;;
79330;SDS011;68797;49.782;19.054;2023-04-03T16:52:24;10.13;;;4.07;;
79330;SDS011;68797;49.782;19.054;2023-04-03T16:54:51;9.27;;;3.65;;